sensor_id;sensor_type;location;lat;lon;timestamp;P1;durP1;ratioP1;P2;durP2;ratioP2
43690;SDS011;29293;52.190;21.226;2023-06-14T00:14:06;29.60;;;10.70;;
43690;SDS011;29293;52.190;21.226;2023-06-14T00:29:13;24.20;;;13.50;;
43690;SDS011;29293;52.190;21.226;2023-06-14T00:44:20;25.30;;;13.10;;
43690;SDS011;29293;52.190;21.226;2023-06-14T00:59:27;21.10;;;11.50;;
43690;SDS011;29293;52.190;21.226;2023-06-14T01:14:35;15.70;;;11.10;;
43690;SDS011;29293;52.190;21.226;2023-06-14T01:29:43;15.40;;;10.20;;
43690;SDS011;29293;52.190;21.226;2023-06-14T01:44:50;19.70;;;11.60;;
43690;SDS011;29293;52.190;21.226;2023-06-14T01:59:59;13.90;;;10.90;;
43690;SDS011;29293;52.190;21.226;2023-06-14T02:15:08;16.60;;;10.10;;
43690;SDS011;29293;52.190;21.226;2023-06-14T02:30:20;17.70;;;9.90;;
43690;SDS011;29293;52.190;21.226;2023-06-14T03:00:35;18.80;;;11.00;;
43690;SDS011;29293;52.190;21.226;2023-06-14T03:15:42;19.40;;;10.90;;
43690;SDS011;29293;52.190;21.226;2023-06-14T03:30:49;21.40;;;11.80;;
43690;SDS011;29293;52.190;21.226;2023-06-14T03:45:55;16.60;;;11.40;;
43690;SDS011;29293;52.190;21.226;2023-06-14T04:01:02;17.90;;;10.80;;
43690;SDS011;29293;52.190;21.226;2023-06-14T04:16:10;15.00;;;10.60;;
43690;SDS011;29293;52.190;21.226;2023-06-14T04:31:17;12.90;;;10.90;;
43690;SDS011;29293;52.190;21.226;2023-06-14T04:46:25;18.50;;;11.40;;
43690;SDS011;29293;52.190;21.226;2023-06-14T05:01:32;15.50;;;12.30;;
43690;SDS011;29293;52.190;21.226;2023-06-14T05:16:41;19.40;;;12.60;;
43690;SDS011;29293;52.190;21.226;2023-06-14T05:31:48;15.90;;;12.80;;
43690;SDS011;29293;52.190;21.226;2023-06-14T05:46:57;16.60;;;12.30;;
43690;SDS011;29293;52.190;21.226;2023-06-14T06:02:04;16.50;;;12.50;;
43690;SDS011;29293;52.190;21.226;2023-06-14T06:17:12;19.20;;;12.60;;
43690;SDS011;29293;52.190;21.226;2023-06-14T06:32:19;18.50;;;13.20;;
43690;SDS011;29293;52.190;21.226;2023-06-14T06:47:26;18.10;;;12.50;;
43690;SDS011;29293;52.190;21.226;2023-06-14T07:02:34;19.10;;;12.60;;
43690;SDS011;29293;52.190;21.226;2023-06-14T07:17:42;15.70;;;11.50;;
43690;SDS011;29293;52.190;21.226;2023-06-14T07:32:51;20.80;;;11.30;;
43690;SDS011;29293;52.190;21.226;2023-06-14T07:47:58;12.10;;;9.70;;
43690;SDS011;29293;52.190;21.226;2023-06-14T08:03:05;14.00;;;8.50;;
43690;SDS011;29293;52.190;21.226;2023-06-14T08:18:14;12.10;;;7.50;;
43690;SDS011;29293;52.190;21.226;2023-06-14T08:33:21;9.40;;;6.40;;
43690;SDS011;29293;52.190;21.226;2023-06-14T08:48:28;12.90;;;7.20;;
43690;SDS011;29293;52.190;21.226;2023-06-14T09:03:37;12.70;;;7.50;;
43690;SDS011;29293;52.190;21.226;2023-06-14T09:18:46;11.90;;;7.10;;
43690;SDS011;29293;52.190;21.226;2023-06-14T09:33:53;11.40;;;6.50;;
43690;SDS011;29293;52.190;21.226;2023-06-14T09:49:01;9.30;;;6.70;;
43690;SDS011;29293;52.190;21.226;2023-06-14T10:04:10;11.50;;;6.60;;
43690;SDS011;29293;52.190;21.226;2023-06-14T10:19:21;7.10;;;5.20;;
43690;SDS011;29293;52.190;21.226;2023-06-14T10:34:38;9.60;;;5.10;;
43690;SDS011;29293;52.190;21.226;2023-06-14T10:49:49;15.60;;;5.70;;
43690;SDS011;29293;52.190;21.226;2023-06-14T11:04:57;9.70;;;5.50;;
43690;SDS011;29293;52.190;21.226;2023-06-14T11:20:09;10.10;;;4.30;;
43690;SDS011;29293;52.190;21.226;2023-06-14T11:35:23;10.60;;;3.80;;
43690;SDS011;29293;52.190;21.226;2023-06-14T11:50:30;13.40;;;4.20;;
43690;SDS011;29293;52.190;21.226;2023-06-14T12:05:38;5.80;;;2.80;;
43690;SDS011;29293;52.190;21.226;2023-06-14T12:20:47;6.70;;;2.60;;
43690;SDS011;29293;52.190;21.226;2023-06-14T12:35:59;6.60;;;2.50;;
43690;SDS011;29293;52.190;21.226;2023-06-14T12:51:09;5.60;;;1.90;;
43690;SDS011;29293;52.190;21.226;2023-06-14T13:06:16;6.40;;;2.20;;
43690;SDS011;29293;52.190;21.226;2023-06-14T13:21:32;4.60;;;2.20;;
43690;SDS011;29293;52.190;21.226;2023-06-14T13:36:39;3.00;;;2.00;;
43690;SDS011;29293;52.190;21.226;2023-06-14T13:51:54;7.90;;;2.50;;
43690;SDS011;29293;52.190;21.226;2023-06-14T14:07:02;4.00;;;2.20;;
43690;SDS011;29293;52.190;21.226;2023-06-14T14:22:10;4.40;;;2.40;;
43690;SDS011;29293;52.190;21.226;2023-06-14T14:37:33;7.40;;;2.40;;
43690;SDS011;29293;52.190;21.226;2023-06-14T14:52:40;6.10;;;3.10;;
43690;SDS011;29293;52.190;21.226;2023-06-14T15:07:47;7.30;;;3.20;;
43690;SDS011;29293;52.190;21.226;2023-06-14T15:22:57;7.10;;;3.80;;
43690;SDS011;29293;52.190;21.226;2023-06-14T15:38:04;8.60;;;4.50;;
43690;SDS011;29293;52.190;21.226;2023-06-14T15:53:11;7.70;;;4.70;;
43690;SDS011;29293;52.190;21.226;2023-06-14T16:08:24;9.50;;;4.40;;
43690;SDS011;29293;52.190;21.226;2023-06-14T16:23:31;9.20;;;5.50;;
43690;SDS011;29293;52.190;21.226;2023-06-14T16:38:38;7.90;;;5.90;;
43690;SDS011;29293;52.190;21.226;2023-06-14T16:53:45;9.10;;;5.60;;
43690;SDS011;29293;52.190;21.226;2023-06-14T17:08:52;10.50;;;5.50;;
43690;SDS011;29293;52.190;21.226;2023-06-14T17:23:59;8.50;;;5.70;;
43690;SDS011;29293;52.190;21.226;2023-06-14T17:39:06;7.50;;;5.30;;
43690;SDS011;29293;52.190;21.226;2023-06-14T17:54:13;11.70;;;5.50;;
43690;SDS011;29293;52.190;21.226;2023-06-14T18:09:22;13.20;;;5.80;;
43690;SDS011;29293;52.190;21.226;2023-06-14T18:24:30;8.80;;;5.90;;
43690;SDS011;29293;52.190;21.226;2023-06-14T18:39:37;8.50;;;5.70;;
43690;SDS011;29293;52.190;21.226;2023-06-14T18:54:47;10.50;;;5.80;;
43690;SDS011;29293;52.190;21.226;2023-06-14T19:09:54;10.70;;;6.30;;
43690;SDS011;29293;52.190;21.226;2023-06-14T19:25:02;7.30;;;6.40;;
43690;SDS011;29293;52.190;21.226;2023-06-14T19:40:14;10.00;;;6.50;;
43690;SDS011;29293;52.190;21.226;2023-06-14T19:55:25;11.00;;;7.00;;
43690;SDS011;29293;52.190;21.226;2023-06-14T20:10:32;14.80;;;7.90;;
43690;SDS011;29293;52.190;21.226;2023-06-14T20:25:40;12.00;;;9.10;;
43690;SDS011;29293;52.190;21.226;2023-06-14T20:40:47;10.40;;;8.50;;
43690;SDS011;29293;52.190;21.226;2023-06-14T20:55:58;12.40;;;9.10;;
43690;SDS011;29293;52.190;21.226;2023-06-14T21:11:05;12.40;;;8.50;;
43690;SDS011;29293;52.190;21.226;2023-06-14T21:26:13;11.10;;;8.90;;
43690;SDS011;29293;52.190;21.226;2023-06-14T21:41:20;12.60;;;9.00;;
43690;SDS011;29293;52.190;21.226;2023-06-14T21:56:27;17.20;;;9.60;;
43690;SDS011;29293;52.190;21.226;2023-06-14T22:11:33;15.00;;;9.30;;
43690;SDS011;29293;52.190;21.226;2023-06-14T22:26:43;11.60;;;8.70;;
43690;SDS011;29293;52.190;21.226;2023-06-14T22:41:51;15.70;;;9.50;;
43690;SDS011;29293;52.190;21.226;2023-06-14T23:09:00;13.10;;;10.20;;
43690;SDS011;29293;52.190;21.226;2023-06-14T23:24:08;14.50;;;11.50;;
43690;SDS011;29293;52.190;21.226;2023-06-14T23:39:14;14.60;;;11.30;;
43690;SDS011;29293;52.190;21.226;2023-06-14T23:54:22;23.20;;;13.70;;
